sensor_id;sensor_type;location;lat;lon;timestamp;pressure;altitude;pressure_sealevel;temperature;humidity
57232;BME280;43488;46.934;8.276;2023-03-25T00:01:15;96205.00;;;7.44;100.00
57232;BME280;43488;46.934;8.276;2023-03-25T00:03:43;96210.84;;;7.46;100.00
57232;BME280;43488;46.934;8.276;2023-03-25T00:06:16;96205.81;;;7.45;100.00
57232;BME280;43488;46.934;8.276;2023-03-25T00:08:44;96202.41;;;7.51;100.00
57232;BME280;43488;46.934;8.276;2023-03-25T00:11:11;96202.78;;;7.41;100.00
57232;BME280;43488;46.934;8.276;2023-03-25T00:13:39;96205.41;;;7.41;100.00
57232;BME280;43488;46.934;8.276;2023-03-25T00:16:08;96199.16;;;7.49;100.00
57232;BME280;43488;46.934;8.276;2023-03-25T00:18:36;96199.16;;;7.42;100.00
57232;BME280;43488;46.934;8.276;2023-03-25T00:21:05;96195.69;;;7.35;100.00
57232;BME280;43488;46.934;8.276;2023-03-25T00:23:38;96200.50;;;7.31;100.00
57232;BME280;43488;46.934;8.276;2023-03-25T00:26:06;96199.13;;;7.35;100.00
57232;BME280;43488;46.934;8.276;2023-03-25T00:28:36;96198.28;;;7.28;100.00
57232;BME280;43488;46.934;8.276;2023-03-25T00:31:08;96192.47;;;7.33;100.00
57232;BME280;43488;46.934;8.276;2023-03-25T00:33:37;96193.88;;;7.35;100.00
57232;BME280;43488;46.934;8.276;2023-03-25T00:36:08;96192.69;;;7.38;100.00
57232;BME280;43488;46.934;8.276;2023-03-25T00:38:37;96199.31;;;7.34;100.00
57232;BME280;43488;46.934;8.276;2023-03-25T00:41:16;96197.50;;;7.34;100.00
57232;BME280;43488;46.934;8.276;2023-03-25T00:43:44;96191.47;;;7.40;100.00
57232;BME280;43488;46.934;8.276;2023-03-25T00:46:12;96213.25;;;7.41;100.00
57232;BME280;43488;46.934;8.276;2023-03-25T00:48:39;96231.34;;;7.36;100.00
57232;BME280;43488;46.934;8.276;2023-03-25T00:51:09;96245.09;;;7.45;100.00
57232;BME280;43488;46.934;8.276;2023-03-25T00:53:39;96246.25;;;7.35;100.00
57232;BME280;43488;46.934;8.276;2023-03-25T00:56:07;96252.31;;;7.36;100.00
57232;BME280;43488;46.934;8.276;2023-03-25T00:58:34;96262.69;;;7.57;97.79
57232;BME280;43488;46.934;8.276;2023-03-25T01:01:15;96267.03;;;7.78;95.74
57232;BME280;43488;46.934;8.276;2023-03-25T01:03:44;96272.28;;;7.85;95.55
57232;BME280;43488;46.934;8.276;2023-03-25T01:06:15;96283.66;;;8.05;94.27
57232;BME280;43488;46.934;8.276;2023-03-25T01:08:43;96283.28;;;8.15;90.68
57232;BME280;43488;46.934;8.276;2023-03-25T01:11:19;96283.94;;;8.23;88.71
57232;BME280;43488;46.934;8.276;2023-03-25T01:13:47;96290.38;;;8.27;88.91
57232;BME280;43488;46.934;8.276;2023-03-25T01:16:14;96288.78;;;8.33;87.42
57232;BME280;43488;46.934;8.276;2023-03-25T01:18:41;96281.97;;;8.39;86.01
57232;BME280;43488;46.934;8.276;2023-03-25T01:21:09;96285.00;;;8.42;86.81
57232;BME280;43488;46.934;8.276;2023-03-25T01:23:36;96283.41;;;8.41;86.22
57232;BME280;43488;46.934;8.276;2023-03-25T01:26:03;96281.72;;;8.34;90.96
57232;BME280;43488;46.934;8.276;2023-03-25T01:28:31;96291.41;;;8.33;91.85
57232;BME280;43488;46.934;8.276;2023-03-25T01:31:04;96310.59;;;8.40;89.89
57232;BME280;43488;46.934;8.276;2023-03-25T01:33:34;96332.59;;;8.39;88.39
57232;BME280;43488;46.934;8.276;2023-03-25T01:36:03;96344.94;;;8.45;82.90
57232;BME280;43488;46.934;8.276;2023-03-25T01:38:30;96371.00;;;8.53;82.25
57232;BME280;43488;46.934;8.276;2023-03-25T01:40:57;96366.97;;;8.58;83.28
57232;BME280;43488;46.934;8.276;2023-03-25T01:43:24;96360.28;;;8.42;90.42
57232;BME280;43488;46.934;8.276;2023-03-25T01:45:52;96333.41;;;8.40;83.85
57232;BME280;43488;46.934;8.276;2023-03-25T01:48:34;96320.94;;;8.42;83.29
57232;BME280;43488;46.934;8.276;2023-03-25T01:51:19;96305.72;;;8.31;84.77
57232;BME280;43488;46.934;8.276;2023-03-25T01:53:50;96298.66;;;8.31;85.83
57232;BME280;43488;46.934;8.276;2023-03-25T01:56:25;96301.88;;;8.26;85.33
57232;BME280;43488;46.934;8.276;2023-03-25T01:58:53;96296.59;;;8.20;85.06
57232;BME280;43488;46.934;8.276;2023-03-25T02:01:21;96306.25;;;8.13;85.74
57232;BME280;43488;46.934;8.276;2023-03-25T02:03:50;96296.97;;;8.10;82.37
57232;BME280;43488;46.934;8.276;2023-03-25T02:06:27;96285.06;;;8.08;81.05
57232;BME280;43488;46.934;8.276;2023-03-25T02:08:58;96284.06;;;8.09;80.82
57232;BME280;43488;46.934;8.276;2023-03-25T02:11:28;96268.13;;;8.10;78.82
57232;BME280;43488;46.934;8.276;2023-03-25T02:13:59;96277.22;;;8.08;79.28
57232;BME280;43488;46.934;8.276;2023-03-25T02:17:12;96266.50;;;8.03;78.76
57232;BME280;43488;46.934;8.276;2023-03-25T02:20:20;96271.53;;;8.04;78.94
57232;BME280;43488;46.934;8.276;2023-03-25T02:38:15;96228.53;;;7.85;81.02
57232;BME280;43488;46.934;8.276;2023-03-25T02:40:51;96233.97;;;7.84;80.93
57232;BME280;43488;46.934;8.276;2023-03-25T02:44:00;96233.16;;;7.83;79.97
57232;BME280;43488;46.934;8.276;2023-03-25T02:46:30;96237.19;;;7.79;79.99
57232;BME280;43488;46.934;8.276;2023-03-25T02:49:33;96236.38;;;7.85;80.72
57232;BME280;43488;46.934;8.276;2023-03-25T02:54:42;96226.72;;;7.79;83.99
57232;BME280;43488;46.934;8.276;2023-03-25T02:57:15;96220.03;;;7.70;85.14
57232;BME280;43488;46.934;8.276;2023-03-25T02:59:46;96219.81;;;7.72;86.10
57232;BME280;43488;46.934;8.276;2023-03-25T03:02:16;96209.75;;;7.75;85.51
57232;BME280;43488;46.934;8.276;2023-03-25T03:04:54;96231.72;;;7.74;85.47
57232;BME280;43488;46.934;8.276;2023-03-25T03:07:28;96240.72;;;7.58;83.08
57232;BME280;43488;46.934;8.276;2023-03-25T03:10:25;96248.84;;;7.70;82.75
57232;BME280;43488;46.934;8.276;2023-03-25T03:24:35;96240.88;;;7.98;74.29
57232;BME280;43488;46.934;8.276;2023-03-25T03:27:28;96254.19;;;7.96;74.23
57232;BME280;43488;46.934;8.276;2023-03-25T03:32:55;96276.63;;;8.19;70.14
57232;BME280;43488;46.934;8.276;2023-03-25T03:35:39;96269.56;;;8.19;72.00
57232;BME280;43488;46.934;8.276;2023-03-25T03:38:10;96272.69;;;8.36;67.03
57232;BME280;43488;46.934;8.276;2023-03-25T03:40:44;96277.75;;;8.44;67.99
57232;BME280;43488;46.934;8.276;2023-03-25T03:43:32;96267.66;;;8.41;70.20
57232;BME280;43488;46.934;8.276;2023-03-25T03:46:27;96256.53;;;8.39;71.04
57232;BME280;43488;46.934;8.276;2023-03-25T03:48:57;96258.16;;;8.40;69.41
57232;BME280;43488;46.934;8.276;2023-03-25T03:51:35;96250.91;;;8.42;69.18
57232;BME280;43488;46.934;8.276;2023-03-25T03:57:11;96253.94;;;8.46;69.59
57232;BME280;43488;46.934;8.276;2023-03-25T03:59:57;96248.28;;;8.49;69.70
57232;BME280;43488;46.934;8.276;2023-03-25T04:05:11;96250.31;;;8.53;67.27
57232;BME280;43488;46.934;8.276;2023-03-25T04:07:51;96242.22;;;8.48;74.64
57232;BME280;43488;46.934;8.276;2023-03-25T04:10:35;96244.19;;;8.33;75.11
57232;BME280;43488;46.934;8.276;2023-03-25T04:13:13;96260.53;;;8.28;77.08
57232;BME280;43488;46.934;8.276;2023-03-25T04:15:42;96272.03;;;8.27;74.27
57232;BME280;43488;46.934;8.276;2023-03-25T04:18:10;96303.69;;;8.26;74.18
57232;BME280;43488;46.934;8.276;2023-03-25T04:20:38;96312.16;;;8.28;73.21
57232;BME280;43488;46.934;8.276;2023-03-25T04:23:11;96322.66;;;8.28;74.95
57232;BME280;43488;46.934;8.276;2023-03-25T04:25:43;96332.53;;;8.26;75.59
57232;BME280;43488;46.934;8.276;2023-03-25T04:28:13;96329.69;;;8.21;77.37
57232;BME280;43488;46.934;8.276;2023-03-25T04:30:44;96329.69;;;8.14;78.22
57232;BME280;43488;46.934;8.276;2023-03-25T04:33:12;96329.06;;;8.19;77.20
57232;BME280;43488;46.934;8.276;2023-03-25T04:35:40;96326.88;;;8.16;78.13
57232;BME280;43488;46.934;8.276;2023-03-25T04:38:07;96324.25;;;8.16;78.00
57232;BME280;43488;46.934;8.276;2023-03-25T04:40:35;96316.97;;;8.18;75.87
57232;BME280;43488;46.934;8.276;2023-03-25T04:43:04;96313.75;;;8.22;75.13
57232;BME280;43488;46.934;8.276;2023-03-25T04:45:32;96319.63;;;8.24;76.42
57232;BME280;43488;46.934;8.276;2023-03-25T04:48:03;96330.94;;;8.25;77.64
57232;BME280;43488;46.934;8.276;2023-03-25T04:50:32;96338.00;;;8.24;79.21
57232;BME280;43488;46.934;8.276;2023-03-25T04:53:00;96332.94;;;8.23;79.21
57232;BME280;43488;46.934;8.276;2023-03-25T04:55:27;96345.41;;;8.21;79.53
57232;BME280;43488;46.934;8.276;2023-03-25T04:57:56;96331.31;;;8.22;80.24
57232;BME280;43488;46.934;8.276;2023-03-25T05:00:24;96331.94;;;8.24;82.89
57232;BME280;43488;46.934;8.276;2023-03-25T05:02:54;96334.34;;;8.25;85.14
57232;BME280;43488;46.934;8.276;2023-03-25T05:05:24;96336.16;;;8.25;85.18
57232;BME280;43488;46.934;8.276;2023-03-25T05:07:53;96332.50;;;8.19;86.09
57232;BME280;43488;46.934;8.276;2023-03-25T05:10:24;96340.97;;;8.15;86.38
57232;BME280;43488;46.934;8.276;2023-03-25T05:12:58;96334.66;;;8.03;88.30
57232;BME280;43488;46.934;8.276;2023-03-25T05:15:27;96335.28;;;8.05;88.07
57232;BME280;43488;46.934;8.276;2023-03-25T05:17:56;96329.81;;;7.99;88.66
57232;BME280;43488;46.934;8.276;2023-03-25T05:20:23;96347.97;;;8.01;89.80
57232;BME280;43488;46.934;8.276;2023-03-25T05:22:51;96338.44;;;7.93;90.24
57232;BME280;43488;46.934;8.276;2023-03-25T05:25:19;96335.81;;;7.93;91.15
57232;BME280;43488;46.934;8.276;2023-03-25T05:27:48;96327.31;;;7.85;90.60
57232;BME280;43488;46.934;8.276;2023-03-25T05:30:16;96318.19;;;7.74;89.93
57232;BME280;43488;46.934;8.276;2023-03-25T05:32:43;96311.34;;;7.73;89.65
57232;BME280;43488;46.934;8.276;2023-03-25T05:35:11;96307.06;;;7.65;92.07
57232;BME280;43488;46.934;8.276;2023-03-25T05:37:39;96316.31;;;7.61;94.08
57232;BME280;43488;46.934;8.276;2023-03-25T05:40:07;96316.47;;;7.53;92.46
57232;BME280;43488;46.934;8.276;2023-03-25T05:42:35;96313.59;;;7.41;91.63
57232;BME280;43488;46.934;8.276;2023-03-25T05:45:04;96308.16;;;7.43;91.59
57232;BME280;43488;46.934;8.276;2023-03-25T05:47:32;96295.41;;;7.40;91.83
57232;BME280;43488;46.934;8.276;2023-03-25T05:49:59;96303.25;;;7.33;91.95
57232;BME280;43488;46.934;8.276;2023-03-25T05:52:27;96299.03;;;7.32;92.51
57232;BME280;43488;46.934;8.276;2023-03-25T05:54:54;96307.50;;;7.34;92.37
57232;BME280;43488;46.934;8.276;2023-03-25T05:57:21;96300.25;;;7.36;92.92
57232;BME280;43488;46.934;8.276;2023-03-25T05:59:49;96307.84;;;7.31;94.04
57232;BME280;43488;46.934;8.276;2023-03-25T06:02:16;96292.78;;;7.33;93.84
57232;BME280;43488;46.934;8.276;2023-03-25T06:04:46;96295.00;;;7.36;94.67
57232;BME280;43488;46.934;8.276;2023-03-25T06:07:16;96307.91;;;7.38;94.73
57232;BME280;43488;46.934;8.276;2023-03-25T06:09:49;96320.00;;;7.39;93.70
57232;BME280;43488;46.934;8.276;2023-03-25T06:12:22;96329.25;;;7.35;93.89
57232;BME280;43488;46.934;8.276;2023-03-25T06:14:50;96325.63;;;7.36;93.41
57232;BME280;43488;46.934;8.276;2023-03-25T06:17:21;96328.50;;;7.41;93.10
57232;BME280;43488;46.934;8.276;2023-03-25T06:19:51;96332.13;;;7.47;93.49
57232;BME280;43488;46.934;8.276;2023-03-25T06:22:18;96336.16;;;7.43;93.57
57232;BME280;43488;46.934;8.276;2023-03-25T06:24:48;96348.66;;;7.47;93.63
57232;BME280;43488;46.934;8.276;2023-03-25T06:27:18;96345.47;;;7.52;93.72
57232;BME280;43488;46.934;8.276;2023-03-25T06:29:45;96330.94;;;7.49;93.83
57232;BME280;43488;46.934;8.276;2023-03-25T06:32:14;96332.94;;;7.47;95.27
57232;BME280;43488;46.934;8.276;2023-03-25T06:34:42;96329.78;;;7.52;94.61
57232;BME280;43488;46.934;8.276;2023-03-25T06:37:10;96344.84;;;7.50;93.61
57232;BME280;43488;46.934;8.276;2023-03-25T06:39:37;96356.31;;;7.49;93.81
57232;BME280;43488;46.934;8.276;2023-03-25T06:42:05;96360.94;;;7.47;93.27
57232;BME280;43488;46.934;8.276;2023-03-25T06:44:33;96386.34;;;7.46;94.21
57232;BME280;43488;46.934;8.276;2023-03-25T06:47:01;96394.81;;;7.48;93.85
57232;BME280;43488;46.934;8.276;2023-03-25T06:49:31;96397.41;;;7.41;95.08
57232;BME280;43488;46.934;8.276;2023-03-25T06:51:59;96403.38;;;7.35;94.92
57232;BME280;43488;46.934;8.276;2023-03-25T06:54:26;96416.09;;;7.38;95.67
57232;BME280;43488;46.934;8.276;2023-03-25T06:56:53;96403.00;;;7.38;97.79
57232;BME280;43488;46.934;8.276;2023-03-25T06:59:20;96401.56;;;7.36;98.90
57232;BME280;43488;46.934;8.276;2023-03-25T07:01:48;96402.00;;;7.39;99.02
57232;BME280;43488;46.934;8.276;2023-03-25T07:04:16;96398.38;;;7.40;100.00
57232;BME280;43488;46.934;8.276;2023-03-25T07:06:43;96399.75;;;7.36;100.00
57232;BME280;43488;46.934;8.276;2023-03-25T07:09:10;96393.31;;;7.39;100.00
57232;BME280;43488;46.934;8.276;2023-03-25T07:11:38;96394.00;;;7.48;99.12
57232;BME280;43488;46.934;8.276;2023-03-25T07:14:08;96400.50;;;7.52;98.56
57232;BME280;43488;46.934;8.276;2023-03-25T07:16:36;96393.47;;;7.59;97.29
57232;BME280;43488;46.934;8.276;2023-03-25T07:19:04;96390.50;;;7.62;96.57
57232;BME280;43488;46.934;8.276;2023-03-25T07:21:31;96391.69;;;7.59;98.39
57232;BME280;43488;46.934;8.276;2023-03-25T07:23:58;96388.69;;;7.62;99.40
57232;BME280;43488;46.934;8.276;2023-03-25T07:26:28;96389.53;;;7.69;98.24
57232;BME280;43488;46.934;8.276;2023-03-25T07:28:55;96387.13;;;7.75;97.12
57232;BME280;43488;46.934;8.276;2023-03-25T07:31:23;96379.13;;;7.83;96.59
57232;BME280;43488;46.934;8.276;2023-03-25T07:33:50;96370.72;;;7.94;97.18
57232;BME280;43488;46.934;8.276;2023-03-25T07:36:18;96371.16;;;7.97;100.00
57232;BME280;43488;46.934;8.276;2023-03-25T07:38:47;96364.94;;;8.05;100.00
57232;BME280;43488;46.934;8.276;2023-03-25T07:41:15;96360.34;;;8.20;100.00
57232;BME280;43488;46.934;8.276;2023-03-25T07:43:42;96363.41;;;8.31;100.00
57232;BME280;43488;46.934;8.276;2023-03-25T07:46:12;96365.22;;;8.30;99.24
57232;BME280;43488;46.934;8.276;2023-03-25T07:48:40;96366.31;;;8.42;100.00
57232;BME280;43488;46.934;8.276;2023-03-25T07:51:08;96366.91;;;8.38;97.68
57232;BME280;43488;46.934;8.276;2023-03-25T07:53:36;96361.69;;;8.44;97.31
57232;BME280;43488;46.934;8.276;2023-03-25T07:56:07;96358.47;;;8.42;97.97
57232;BME280;43488;46.934;8.276;2023-03-25T07:58:35;96359.91;;;8.51;97.81
57232;BME280;43488;46.934;8.276;2023-03-25T08:01:03;96353.66;;;8.52;97.15
57232;BME280;43488;46.934;8.276;2023-03-25T08:03:31;96358.47;;;8.49;96.72
57232;BME280;43488;46.934;8.276;2023-03-25T08:06:01;96357.88;;;8.53;96.71
57232;BME280;43488;46.934;8.276;2023-03-25T08:08:28;96362.53;;;8.65;95.52
57232;BME280;43488;46.934;8.276;2023-03-25T08:10:58;96366.97;;;8.64;93.95
57232;BME280;43488;46.934;8.276;2023-03-25T08:13:25;96360.75;;;8.72;96.79
57232;BME280;43488;46.934;8.276;2023-03-25T08:15:53;96353.88;;;8.77;97.65
57232;BME280;43488;46.934;8.276;2023-03-25T08:18:20;96354.72;;;8.91;98.51
57232;BME280;43488;46.934;8.276;2023-03-25T08:20:48;96343.00;;;9.00;97.51
57232;BME280;43488;46.934;8.276;2023-03-25T08:23:18;96341.19;;;9.14;94.94
57232;BME280;43488;46.934;8.276;2023-03-25T08:25:48;96352.13;;;9.18;95.97
57232;BME280;43488;46.934;8.276;2023-03-25T08:28:18;96332.53;;;9.33;93.49
57232;BME280;43488;46.934;8.276;2023-03-25T08:30:51;96341.22;;;9.34;89.20
57232;BME280;43488;46.934;8.276;2023-03-25T08:33:25;96340.59;;;9.19;86.49
57232;BME280;43488;46.934;8.276;2023-03-25T08:36:01;96351.69;;;9.14;84.12
57232;BME280;43488;46.934;8.276;2023-03-25T08:38:28;96346.44;;;9.21;83.24
57232;BME280;43488;46.934;8.276;2023-03-25T08:40:59;96355.97;;;9.35;83.76
57232;BME280;43488;46.934;8.276;2023-03-25T08:43:27;96357.16;;;9.39;83.05
57232;BME280;43488;46.934;8.276;2023-03-25T08:45:54;96343.59;;;9.49;85.03
57232;BME280;43488;46.934;8.276;2023-03-25T08:48:21;96333.50;;;9.52;83.46
57232;BME280;43488;46.934;8.276;2023-03-25T08:50:50;96335.50;;;9.57;82.02
57232;BME280;43488;46.934;8.276;2023-03-25T08:53:19;96318.72;;;9.71;82.33
57232;BME280;43488;46.934;8.276;2023-03-25T08:55:52;96329.19;;;9.78;82.14
57232;BME280;43488;46.934;8.276;2023-03-25T08:58:19;96340.28;;;9.86;82.92
57232;BME280;43488;46.934;8.276;2023-03-25T09:00:53;96353.44;;;9.93;83.13
57232;BME280;43488;46.934;8.276;2023-03-25T09:03:22;96352.03;;;9.97;82.24
57232;BME280;43488;46.934;8.276;2023-03-25T09:05:50;96353.22;;;10.01;82.03
57232;BME280;43488;46.934;8.276;2023-03-25T09:08:18;96348.16;;;10.00;81.01
57232;BME280;43488;46.934;8.276;2023-03-25T09:10:45;96341.09;;;9.87;79.26
57232;BME280;43488;46.934;8.276;2023-03-25T09:13:13;96336.06;;;9.85;78.28
57232;BME280;43488;46.934;8.276;2023-03-25T09:15:40;96341.53;;;9.84;77.74
57232;BME280;43488;46.934;8.276;2023-03-25T09:18:07;96347.16;;;9.87;79.97
57232;BME280;43488;46.934;8.276;2023-03-25T09:20:36;96340.50;;;9.85;80.06
57232;BME280;43488;46.934;8.276;2023-03-25T09:23:05;96337.88;;;9.85;80.43
57232;BME280;43488;46.934;8.276;2023-03-25T09:25:33;96356.50;;;9.77;80.38
57232;BME280;43488;46.934;8.276;2023-03-25T09:28:00;96364.22;;;9.72;79.43
57232;BME280;43488;46.934;8.276;2023-03-25T09:30:28;96372.47;;;9.68;78.10
57232;BME280;43488;46.934;8.276;2023-03-25T09:32:55;96365.81;;;9.79;79.29
57232;BME280;43488;46.934;8.276;2023-03-25T09:35:22;96374.72;;;9.72;73.39
57232;BME280;43488;46.934;8.276;2023-03-25T09:37:50;96373.88;;;9.78;75.10
57232;BME280;43488;46.934;8.276;2023-03-25T09:40:18;96366.41;;;9.81;73.76
57232;BME280;43488;46.934;8.276;2023-03-25T09:43:03;96369.03;;;9.81;72.15
57232;BME280;43488;46.934;8.276;2023-03-25T09:45:43;96376.34;;;9.79;75.10
57232;BME280;43488;46.934;8.276;2023-03-25T09:51:05;96367.41;;;9.87;76.02
57232;BME280;43488;46.934;8.276;2023-03-25T09:56:36;96370.28;;;9.72;75.88
57232;BME280;43488;46.934;8.276;2023-03-25T09:59:13;96366.63;;;9.66;77.68
57232;BME280;43488;46.934;8.276;2023-03-25T10:02:03;96364.22;;;9.65;74.38
57232;BME280;43488;46.934;8.276;2023-03-25T10:08:12;96374.72;;;9.58;76.49
57232;BME280;43488;46.934;8.276;2023-03-25T10:11:10;96369.69;;;9.63;78.20
57232;BME280;43488;46.934;8.276;2023-03-25T10:17:19;96377.53;;;9.90;77.45
57232;BME280;43488;46.934;8.276;2023-03-25T10:23:23;96376.81;;;10.14;76.88
57232;BME280;43488;46.934;8.276;2023-03-25T10:26:00;96380.69;;;10.05;78.32
57232;BME280;43488;46.934;8.276;2023-03-25T10:28:38;96384.34;;;10.11;77.75
57232;BME280;43488;46.934;8.276;2023-03-25T10:31:16;96397.88;;;10.14;77.97
57232;BME280;43488;46.934;8.276;2023-03-25T10:33:55;96408.00;;;10.17;77.41
57232;BME280;43488;46.934;8.276;2023-03-25T10:36:35;96408.38;;;10.14;76.03
57232;BME280;43488;46.934;8.276;2023-03-25T10:39:13;96410.63;;;10.24;76.25
57232;BME280;43488;46.934;8.276;2023-03-25T10:41:56;96401.53;;;10.27;78.41
57232;BME280;43488;46.934;8.276;2023-03-25T10:44:26;96409.34;;;10.46;80.86
57232;BME280;43488;46.934;8.276;2023-03-25T10:47:01;96403.06;;;10.47;76.66
57232;BME280;43488;46.934;8.276;2023-03-25T10:49:31;96394.59;;;10.39;71.15
57232;BME280;43488;46.934;8.276;2023-03-25T10:52:00;96399.06;;;10.32;70.44
57232;BME280;43488;46.934;8.276;2023-03-25T10:54:33;96415.06;;;10.30;71.04
57232;BME280;43488;46.934;8.276;2023-03-25T10:57:06;96417.47;;;10.32;71.48
57232;BME280;43488;46.934;8.276;2023-03-25T11:00:08;96421.94;;;10.31;72.40
57232;BME280;43488;46.934;8.276;2023-03-25T11:02:49;96412.03;;;10.13;73.79
57232;BME280;43488;46.934;8.276;2023-03-25T11:05:22;96419.88;;;10.46;72.82
57232;BME280;43488;46.934;8.276;2023-03-25T11:08:00;96427.75;;;10.53;73.47
57232;BME280;43488;46.934;8.276;2023-03-25T11:10:32;96413.81;;;10.46;71.59
57232;BME280;43488;46.934;8.276;2023-03-25T11:13:01;96418.19;;;10.59;72.61
57232;BME280;43488;46.934;8.276;2023-03-25T11:15:36;96417.03;;;10.48;72.54
57232;BME280;43488;46.934;8.276;2023-03-25T11:18:34;96419.00;;;10.59;71.62
57232;BME280;43488;46.934;8.276;2023-03-25T11:21:13;96415.84;;;10.37;72.63
57232;BME280;43488;46.934;8.276;2023-03-25T11:23:45;96433.47;;;10.37;73.50
57232;BME280;43488;46.934;8.276;2023-03-25T11:29:03;96420.59;;;10.60;74.80
57232;BME280;43488;46.934;8.276;2023-03-25T11:31:36;96426.06;;;10.65;76.55
57232;BME280;43488;46.934;8.276;2023-03-25T11:36:54;96441.13;;;10.51;75.31
57232;BME280;43488;46.934;8.276;2023-03-25T11:39:47;96441.38;;;10.37;77.41
57232;BME280;43488;46.934;8.276;2023-03-25T11:42:41;96445.41;;;10.33;78.69
57232;BME280;43488;46.934;8.276;2023-03-25T11:45:21;96453.91;;;10.21;79.54
57232;BME280;43488;46.934;8.276;2023-03-25T11:47:50;96436.91;;;10.31;79.61
57232;BME280;43488;46.934;8.276;2023-03-25T11:50:25;96456.38;;;10.23;76.50
57232;BME280;43488;46.934;8.276;2023-03-25T11:52:59;96460.00;;;10.22;77.79
57232;BME280;43488;46.934;8.276;2023-03-25T11:55:40;96455.56;;;10.09;80.15
57232;BME280;43488;46.934;8.276;2023-03-25T11:58:16;96460.63;;;10.11;80.35
57232;BME280;43488;46.934;8.276;2023-03-25T12:00:50;96454.34;;;10.05;80.33
57232;BME280;43488;46.934;8.276;2023-03-25T12:03:25;96440.59;;;9.96;76.02
57232;BME280;43488;46.934;8.276;2023-03-25T12:06:13;96456.38;;;10.03;75.38
57232;BME280;43488;46.934;8.276;2023-03-25T12:08:58;96455.19;;;9.92;78.05
57232;BME280;43488;46.934;8.276;2023-03-25T12:12:01;96451.75;;;9.98;75.29
57232;BME280;43488;46.934;8.276;2023-03-25T12:14:42;96438.38;;;10.00;75.04
57232;BME280;43488;46.934;8.276;2023-03-25T12:17:31;96432.88;;;10.15;79.01
57232;BME280;43488;46.934;8.276;2023-03-25T12:20:47;96442.59;;;10.28;83.78
57232;BME280;43488;46.934;8.276;2023-03-25T12:26:25;96439.47;;;10.57;78.91
57232;BME280;43488;46.934;8.276;2023-03-25T12:29:50;96432.22;;;10.46;76.92
57232;BME280;43488;46.934;8.276;2023-03-25T12:41:05;96440.81;;;10.02;78.28
57232;BME280;43488;46.934;8.276;2023-03-25T12:44:07;96438.75;;;10.10;79.99
57232;BME280;43488;46.934;8.276;2023-03-25T12:50:10;96441.19;;;10.18;83.99
57232;BME280;43488;46.934;8.276;2023-03-25T12:55:44;96460.00;;;10.15;79.65
57232;BME280;43488;46.934;8.276;2023-03-25T12:59:08;96467.50;;;10.05;79.72
57232;BME280;43488;46.934;8.276;2023-03-25T13:02:25;96484.69;;;9.94;78.32
57232;BME280;43488;46.934;8.276;2023-03-25T13:08:05;96449.16;;;10.63;79.44
57232;BME280;43488;46.934;8.276;2023-03-25T13:10:36;96449.50;;;11.18;75.97
57232;BME280;43488;46.934;8.276;2023-03-25T13:13:16;96447.84;;;11.55;75.94
57232;BME280;43488;46.934;8.276;2023-03-25T13:15:51;96437.63;;;11.90;76.25
57232;BME280;43488;46.934;8.276;2023-03-25T13:18:26;96448.53;;;12.19;73.49
57232;BME280;43488;46.934;8.276;2023-03-25T13:23:39;96426.09;;;12.65;66.73
57232;BME280;43488;46.934;8.276;2023-03-25T13:29:05;96413.69;;;12.65;62.45
57232;BME280;43488;46.934;8.276;2023-03-25T13:31:39;96411.97;;;12.71;62.95
57232;BME280;43488;46.934;8.276;2023-03-25T13:34:38;96397.38;;;12.98;62.50
57232;BME280;43488;46.934;8.276;2023-03-25T13:37:36;96393.63;;;13.06;61.92
57232;BME280;43488;46.934;8.276;2023-03-25T13:43:22;96388.00;;;13.44;59.72
57232;BME280;43488;46.934;8.276;2023-03-25T13:46:08;96395.25;;;13.60;61.37
57232;BME280;43488;46.934;8.276;2023-03-25T13:48:59;96380.66;;;13.70;57.56
57232;BME280;43488;46.934;8.276;2023-03-25T13:51:28;96372.72;;;13.93;56.31
57232;BME280;43488;46.934;8.276;2023-03-25T13:54:21;96378.34;;;13.85;57.21
57232;BME280;43488;46.934;8.276;2023-03-25T13:57:39;96364.72;;;14.16;57.02
57232;BME280;43488;46.934;8.276;2023-03-25T14:04:09;96345.69;;;14.83;57.57
57232;BME280;43488;46.934;8.276;2023-03-25T14:13:21;96333.50;;;14.82;53.35
57232;BME280;43488;46.934;8.276;2023-03-25T14:16:07;96335.09;;;14.43;52.02
57232;BME280;43488;46.934;8.276;2023-03-25T14:19:02;96333.13;;;14.10;52.74
57232;BME280;43488;46.934;8.276;2023-03-25T14:21:40;96348.09;;;13.92;52.83
57232;BME280;43488;46.934;8.276;2023-03-25T14:27:04;96324.28;;;13.92;53.75
57232;BME280;43488;46.934;8.276;2023-03-25T14:32:38;96346.72;;;13.66;54.61
57232;BME280;43488;46.934;8.276;2023-03-25T14:38:20;96351.19;;;13.31;53.15
57232;BME280;43488;46.934;8.276;2023-03-25T14:40:49;96359.91;;;13.20;52.14
57232;BME280;43488;46.934;8.276;2023-03-25T14:43:44;96356.41;;;13.07;51.73
57232;BME280;43488;46.934;8.276;2023-03-25T14:46:22;96355.75;;;12.82;53.53
57232;BME280;43488;46.934;8.276;2023-03-25T14:49:17;96342.66;;;13.17;53.61
57232;BME280;43488;46.934;8.276;2023-03-25T14:51:52;96343.06;;;13.44;54.38
57232;BME280;43488;46.934;8.276;2023-03-25T14:54:32;96339.38;;;13.45;53.11
57232;BME280;43488;46.934;8.276;2023-03-25T14:57:21;96338.09;;;13.83;52.28
57232;BME280;43488;46.934;8.276;2023-03-25T15:00:00;96335.34;;;13.78;51.87
57232;BME280;43488;46.934;8.276;2023-03-25T15:02:36;96324.28;;;13.69;51.00
57232;BME280;43488;46.934;8.276;2023-03-25T15:05:19;96324.84;;;13.94;50.86
57232;BME280;43488;46.934;8.276;2023-03-25T15:08:09;96315.44;;;14.39;49.99
57232;BME280;43488;46.934;8.276;2023-03-25T15:10:43;96314.38;;;14.51;47.54
57232;BME280;43488;46.934;8.276;2023-03-25T15:13:31;96309.06;;;14.51;50.43
57232;BME280;43488;46.934;8.276;2023-03-25T15:16:03;96305.91;;;14.66;49.52
57232;BME280;43488;46.934;8.276;2023-03-25T15:21:04;96292.38;;;14.96;46.44
57232;BME280;43488;46.934;8.276;2023-03-25T15:26:34;96280.31;;;15.05;43.48
57232;BME280;43488;46.934;8.276;2023-03-25T15:32:48;96284.34;;;15.25;43.31
57232;BME280;43488;46.934;8.276;2023-03-25T15:35:51;96284.59;;;15.23;42.81
57232;BME280;43488;46.934;8.276;2023-03-25T15:41:41;96302.28;;;15.01;41.52
57232;BME280;43488;46.934;8.276;2023-03-25T15:55:44;96323.75;;;14.31;46.66
57232;BME280;43488;46.934;8.276;2023-03-25T16:01:30;96312.31;;;14.02;46.79